sensor_id;sensor_type;location;lat;lon;timestamp;temperature;humidity
4183;DHT22;2105;52.300;9.182;2023-05-07T00:02:08;11.00;99.90
4183;DHT22;2105;52.300;9.182;2023-05-07T00:04:36;10.90;99.90
4183;DHT22;2105;52.300;9.182;2023-05-07T00:07:04;10.90;99.90
4183;DHT22;2105;52.300;9.182;2023-05-07T00:09:33;10.90;99.90
4183;DHT22;2105;52.300;9.182;2023-05-07T00:11:59;10.80;99.90
4183;DHT22;2105;52.300;9.182;2023-05-07T00:14:26;10.90;99.90
4183;DHT22;2105;52.300;9.182;2023-05-07T00:16:53;10.80;99.90
4183;DHT22;2105;52.300;9.182;2023-05-07T00:19:19;10.90;99.90
4183;DHT22;2105;52.300;9.182;2023-05-07T00:21:46;10.90;99.90
4183;DHT22;2105;52.300;9.182;2023-05-07T00:24:12;10.80;99.90
4183;DHT22;2105;52.300;9.182;2023-05-07T00:26:40;10.80;99.90
4183;DHT22;2105;52.300;9.182;2023-05-07T00:29:07;10.80;99.90
4183;DHT22;2105;52.300;9.182;2023-05-07T00:31:34;10.80;99.90
4183;DHT22;2105;52.300;9.182;2023-05-07T00:34:01;10.80;99.90
4183;DHT22;2105;52.300;9.182;2023-05-07T00:36:27;10.80;99.90
4183;DHT22;2105;52.300;9.182;2023-05-07T00:38:56;10.80;99.90
4183;DHT22;2105;52.300;9.182;2023-05-07T00:41:23;10.80;99.90
4183;DHT22;2105;52.300;9.182;2023-05-07T00:43:51;10.80;99.90
4183;DHT22;2105;52.300;9.182;2023-05-07T00:46:19;10.70;99.90
4183;DHT22;2105;52.300;9.182;2023-05-07T00:48:47;10.70;99.90
4183;DHT22;2105;52.300;9.182;2023-05-07T00:51:14;10.70;99.90
4183;DHT22;2105;52.300;9.182;2023-05-07T00:53:40;10.70;99.90
4183;DHT22;2105;52.300;9.182;2023-05-07T00:56:07;10.70;99.90
4183;DHT22;2105;52.300;9.182;2023-05-07T00:58:34;10.70;99.90
4183;DHT22;2105;52.300;9.182;2023-05-07T01:01:03;10.70;99.90
4183;DHT22;2105;52.300;9.182;2023-05-07T01:03:29;10.70;99.90
4183;DHT22;2105;52.300;9.182;2023-05-07T01:05:57;10.70;99.90
4183;DHT22;2105;52.300;9.182;2023-05-07T01:08:25;10.70;99.90
4183;DHT22;2105;52.300;9.182;2023-05-07T01:10:54;10.70;99.90
4183;DHT22;2105;52.300;9.182;2023-05-07T01:13:21;10.70;99.90
4183;DHT22;2105;52.300;9.182;2023-05-07T01:15:47;10.80;99.90
4183;DHT22;2105;52.300;9.182;2023-05-07T01:18:16;10.70;99.90
4183;DHT22;2105;52.300;9.182;2023-05-07T01:20:42;10.70;99.90
4183;DHT22;2105;52.300;9.182;2023-05-07T01:23:11;10.70;99.90
4183;DHT22;2105;52.300;9.182;2023-05-07T01:25:38;10.70;99.90
4183;DHT22;2105;52.300;9.182;2023-05-07T01:28:04;10.70;99.90
4183;DHT22;2105;52.300;9.182;2023-05-07T01:30:32;10.70;99.90
4183;DHT22;2105;52.300;9.182;2023-05-07T01:33:03;10.70;99.90
4183;DHT22;2105;52.300;9.182;2023-05-07T01:35:34;10.70;99.90
4183;DHT22;2105;52.300;9.182;2023-05-07T01:38:03;10.60;99.90
4183;DHT22;2105;52.300;9.182;2023-05-07T01:40:33;10.60;99.90
4183;DHT22;2105;52.300;9.182;2023-05-07T01:43:00;10.60;99.90
4183;DHT22;2105;52.300;9.182;2023-05-07T01:45:28;10.60;99.90
4183;DHT22;2105;52.300;9.182;2023-05-07T01:47:56;10.50;99.90
4183;DHT22;2105;52.300;9.182;2023-05-07T01:50:25;10.50;99.90
4183;DHT22;2105;52.300;9.182;2023-05-07T01:52:52;10.50;99.90
4183;DHT22;2105;52.300;9.182;2023-05-07T01:55:19;10.50;99.90
4183;DHT22;2105;52.300;9.182;2023-05-07T01:57:47;10.50;99.90
4183;DHT22;2105;52.300;9.182;2023-05-07T02:00:15;10.50;99.90
4183;DHT22;2105;52.300;9.182;2023-05-07T02:02:42;10.50;99.90
4183;DHT22;2105;52.300;9.182;2023-05-07T02:05:09;10.50;99.90
4183;DHT22;2105;52.300;9.182;2023-05-07T02:07:36;10.50;99.90
4183;DHT22;2105;52.300;9.182;2023-05-07T02:10:03;10.50;99.90
4183;DHT22;2105;52.300;9.182;2023-05-07T02:12:30;10.50;99.90
4183;DHT22;2105;52.300;9.182;2023-05-07T02:14:58;10.50;99.90
4183;DHT22;2105;52.300;9.182;2023-05-07T02:17:25;10.50;99.90
4183;DHT22;2105;52.300;9.182;2023-05-07T02:19:52;10.50;99.90
4183;DHT22;2105;52.300;9.182;2023-05-07T02:22:18;10.60;99.90
4183;DHT22;2105;52.300;9.182;2023-05-07T02:24:45;10.60;99.90
4183;DHT22;2105;52.300;9.182;2023-05-07T02:27:12;10.60;99.90
4183;DHT22;2105;52.300;9.182;2023-05-07T02:29:38;10.50;99.90
4183;DHT22;2105;52.300;9.182;2023-05-07T02:32:06;10.50;99.90
4183;DHT22;2105;52.300;9.182;2023-05-07T02:34:33;10.50;99.90
4183;DHT22;2105;52.300;9.182;2023-05-07T02:37:00;10.60;99.90
4183;DHT22;2105;52.300;9.182;2023-05-07T02:39:27;10.50;99.90
4183;DHT22;2105;52.300;9.182;2023-05-07T02:41:53;10.50;99.90
4183;DHT22;2105;52.300;9.182;2023-05-07T02:44:20;10.40;99.90
4183;DHT22;2105;52.300;9.182;2023-05-07T02:46:47;10.40;99.90
4183;DHT22;2105;52.300;9.182;2023-05-07T02:49:15;10.40;99.90
4183;DHT22;2105;52.300;9.182;2023-05-07T02:51:41;10.40;99.90
4183;DHT22;2105;52.300;9.182;2023-05-07T02:54:08;10.40;99.90
4183;DHT22;2105;52.300;9.182;2023-05-07T02:56:35;10.40;99.90
4183;DHT22;2105;52.300;9.182;2023-05-07T02:59:01;10.30;99.90
4183;DHT22;2105;52.300;9.182;2023-05-07T03:01:28;10.30;99.90
4183;DHT22;2105;52.300;9.182;2023-05-07T03:03:55;10.30;99.90
4183;DHT22;2105;52.300;9.182;2023-05-07T03:06:23;10.30;99.90
4183;DHT22;2105;52.300;9.182;2023-05-07T03:08:50;10.30;99.90
4183;DHT22;2105;52.300;9.182;2023-05-07T03:11:16;10.40;99.90
4183;DHT22;2105;52.300;9.182;2023-05-07T03:13:43;10.30;99.90
4183;DHT22;2105;52.300;9.182;2023-05-07T03:16:10;10.30;99.90
4183;DHT22;2105;52.300;9.182;2023-05-07T03:18:37;10.30;99.90
4183;DHT22;2105;52.300;9.182;2023-05-07T03:21:03;10.30;99.90
4183;DHT22;2105;52.300;9.182;2023-05-07T03:23:31;10.30;99.90
4183;DHT22;2105;52.300;9.182;2023-05-07T03:25:58;10.20;99.90
4183;DHT22;2105;52.300;9.182;2023-05-07T03:28:25;10.20;99.90
4183;DHT22;2105;52.300;9.182;2023-05-07T03:30:51;10.20;99.90
4183;DHT22;2105;52.300;9.182;2023-05-07T03:33:18;10.20;99.90
4183;DHT22;2105;52.300;9.182;2023-05-07T03:35:45;10.20;99.90
4183;DHT22;2105;52.300;9.182;2023-05-07T03:38:11;10.20;99.90
4183;DHT22;2105;52.300;9.182;2023-05-07T03:40:39;10.20;99.90
4183;DHT22;2105;52.300;9.182;2023-05-07T03:43:06;10.20;99.90
4183;DHT22;2105;52.300;9.182;2023-05-07T03:45:33;10.20;99.90
4183;DHT22;2105;52.300;9.182;2023-05-07T03:48:00;10.20;99.90
4183;DHT22;2105;52.300;9.182;2023-05-07T03:50:26;10.10;99.90
4183;DHT22;2105;52.300;9.182;2023-05-07T03:52:53;10.10;99.90
4183;DHT22;2105;52.300;9.182;2023-05-07T03:55:20;10.10;99.90
4183;DHT22;2105;52.300;9.182;2023-05-07T03:57:48;10.10;99.90
4183;DHT22;2105;52.300;9.182;2023-05-07T04:00:15;10.10;99.90
4183;DHT22;2105;52.300;9.182;2023-05-07T04:02:42;10.10;99.90
4183;DHT22;2105;52.300;9.182;2023-05-07T04:05:08;10.10;99.90
4183;DHT22;2105;52.300;9.182;2023-05-07T04:07:35;10.10;99.90
4183;DHT22;2105;52.300;9.182;2023-05-07T04:10:02;10.10;99.90
4183;DHT22;2105;52.300;9.182;2023-05-07T04:12:29;10.10;99.90
4183;DHT22;2105;52.300;9.182;2023-05-07T04:14:57;10.10;99.90
4183;DHT22;2105;52.300;9.182;2023-05-07T04:17:23;10.10;99.90
4183;DHT22;2105;52.300;9.182;2023-05-07T04:19:50;10.10;99.90
4183;DHT22;2105;52.300;9.182;2023-05-07T04:22:17;10.10;99.90
4183;DHT22;2105;52.300;9.182;2023-05-07T04:24:43;10.10;99.90
4183;DHT22;2105;52.300;9.182;2023-05-07T04:27:10;10.10;99.90
4183;DHT22;2105;52.300;9.182;2023-05-07T04:29:37;10.10;99.90
4183;DHT22;2105;52.300;9.182;2023-05-07T04:32:08;10.10;99.90
4183;DHT22;2105;52.300;9.182;2023-05-07T04:34:35;10.10;99.90
4183;DHT22;2105;52.300;9.182;2023-05-07T04:37:02;10.10;99.90
4183;DHT22;2105;52.300;9.182;2023-05-07T04:39:28;10.10;99.90
4183;DHT22;2105;52.300;9.182;2023-05-07T04:41:55;10.20;99.90
4183;DHT22;2105;52.300;9.182;2023-05-07T04:44:22;10.10;99.90
4183;DHT22;2105;52.300;9.182;2023-05-07T04:46:48;10.10;99.90
4183;DHT22;2105;52.300;9.182;2023-05-07T04:49:16;10.20;99.90
4183;DHT22;2105;52.300;9.182;2023-05-07T04:51:43;10.20;99.90
4183;DHT22;2105;52.300;9.182;2023-05-07T04:54:10;10.20;99.90
4183;DHT22;2105;52.300;9.182;2023-05-07T04:56:36;10.20;99.90
4183;DHT22;2105;52.300;9.182;2023-05-07T04:59:03;10.20;99.90
4183;DHT22;2105;52.300;9.182;2023-05-07T05:01:30;10.20;99.90
4183;DHT22;2105;52.300;9.182;2023-05-07T05:03:56;10.20;99.90
4183;DHT22;2105;52.300;9.182;2023-05-07T05:06:24;10.20;99.90
4183;DHT22;2105;52.300;9.182;2023-05-07T05:08:51;10.20;99.90
4183;DHT22;2105;52.300;9.182;2023-05-07T05:11:18;10.20;99.90
4183;DHT22;2105;52.300;9.182;2023-05-07T05:13:44;10.30;99.90
4183;DHT22;2105;52.300;9.182;2023-05-07T05:16:13;10.30;99.90
4183;DHT22;2105;52.300;9.182;2023-05-07T05:18:40;10.30;99.90
4183;DHT22;2105;52.300;9.182;2023-05-07T05:21:06;10.30;99.90
4183;DHT22;2105;52.300;9.182;2023-05-07T05:23:34;10.30;99.90
4183;DHT22;2105;52.300;9.182;2023-05-07T05:26:01;10.40;99.90
4183;DHT22;2105;52.300;9.182;2023-05-07T05:28:28;10.40;99.90
4183;DHT22;2105;52.300;9.182;2023-05-07T05:30:55;10.30;99.90
4183;DHT22;2105;52.300;9.182;2023-05-07T05:33:22;10.30;99.90
4183;DHT22;2105;52.300;9.182;2023-05-07T05:35:49;10.30;99.90
4183;DHT22;2105;52.300;9.182;2023-05-07T05:38:16;10.40;99.90
4183;DHT22;2105;52.300;9.182;2023-05-07T05:40:44;10.40;99.90
4183;DHT22;2105;52.300;9.182;2023-05-07T05:43:10;10.40;99.90
4183;DHT22;2105;52.300;9.182;2023-05-07T05:45:37;10.40;99.90
4183;DHT22;2105;52.300;9.182;2023-05-07T05:48:04;10.50;99.90
4183;DHT22;2105;52.300;9.182;2023-05-07T05:50:31;10.40;96.70
4183;DHT22;2105;52.300;9.182;2023-05-07T05:52:57;10.40;99.90
4183;DHT22;2105;52.300;9.182;2023-05-07T05:55:24;10.50;99.90
4183;DHT22;2105;52.300;9.182;2023-05-07T05:57:52;10.50;99.90
4183;DHT22;2105;52.300;9.182;2023-05-07T06:00:19;10.50;99.90
4183;DHT22;2105;52.300;9.182;2023-05-07T06:02:47;10.50;99.90
4183;DHT22;2105;52.300;9.182;2023-05-07T06:05:14;10.60;99.90
4183;DHT22;2105;52.300;9.182;2023-05-07T06:07:41;10.60;99.90
4183;DHT22;2105;52.300;9.182;2023-05-07T06:10:08;10.70;99.90
4183;DHT22;2105;52.300;9.182;2023-05-07T06:12:34;10.60;99.90
4183;DHT22;2105;52.300;9.182;2023-05-07T06:15:03;10.50;34.80
4183;DHT22;2105;52.300;9.182;2023-05-07T06:17:30;10.50;99.90
4183;DHT22;2105;52.300;9.182;2023-05-07T06:19:57;10.50;99.90
4183;DHT22;2105;52.300;9.182;2023-05-07T06:22:23;10.50;99.90
4183;DHT22;2105;52.300;9.182;2023-05-07T06:24:50;10.50;99.90
4183;DHT22;2105;52.300;9.182;2023-05-07T06:27:17;10.50;99.90
4183;DHT22;2105;52.300;9.182;2023-05-07T06:29:43;10.50;99.90
4183;DHT22;2105;52.300;9.182;2023-05-07T06:32:13;10.50;99.90
4183;DHT22;2105;52.300;9.182;2023-05-07T06:34:40;10.50;99.90
4183;DHT22;2105;52.300;9.182;2023-05-07T06:37:07;10.60;99.90
4183;DHT22;2105;52.300;9.182;2023-05-07T06:39:34;10.60;90.00
4183;DHT22;2105;52.300;9.182;2023-05-07T06:42:01;10.60;3.70
4183;DHT22;2105;52.300;9.182;2023-05-07T06:44:28;10.50;1.00
4183;DHT22;2105;52.300;9.182;2023-05-07T06:46:54;10.60;15.70
4183;DHT22;2105;52.300;9.182;2023-05-07T06:49:23;10.60;1.00
4183;DHT22;2105;52.300;9.182;2023-05-07T06:51:49;10.60;1.00
4183;DHT22;2105;52.300;9.182;2023-05-07T06:54:16;10.70;1.00
4183;DHT22;2105;52.300;9.182;2023-05-07T06:56:43;10.60;1.00
4183;DHT22;2105;52.300;9.182;2023-05-07T06:59:09;10.60;1.00
4183;DHT22;2105;52.300;9.182;2023-05-07T07:01:36;10.60;1.00
4183;DHT22;2105;52.300;9.182;2023-05-07T07:04:03;10.70;1.00
4183;DHT22;2105;52.300;9.182;2023-05-07T07:06:31;10.70;1.00
4183;DHT22;2105;52.300;9.182;2023-05-07T07:08:58;10.70;1.00
4183;DHT22;2105;52.300;9.182;2023-05-07T07:11:25;10.60;1.00
4183;DHT22;2105;52.300;9.182;2023-05-07T07:13:52;10.60;1.00
4183;DHT22;2105;52.300;9.182;2023-05-07T07:16:20;10.70;1.00
4183;DHT22;2105;52.300;9.182;2023-05-07T07:18:46;10.60;1.00
4183;DHT22;2105;52.300;9.182;2023-05-07T07:21:13;10.70;1.00
4183;DHT22;2105;52.300;9.182;2023-05-07T07:23:41;10.70;1.00
4183;DHT22;2105;52.300;9.182;2023-05-07T07:26:08;10.70;1.00
4183;DHT22;2105;52.300;9.182;2023-05-07T07:28:34;10.70;1.00
4183;DHT22;2105;52.300;9.182;2023-05-07T07:31:01;10.80;1.00
4183;DHT22;2105;52.300;9.182;2023-05-07T07:33:27;10.70;1.00
4183;DHT22;2105;52.300;9.182;2023-05-07T07:35:55;10.70;1.00
4183;DHT22;2105;52.300;9.182;2023-05-07T07:38:22;10.70;1.00
4183;DHT22;2105;52.300;9.182;2023-05-07T07:40:50;10.60;1.00
4183;DHT22;2105;52.300;9.182;2023-05-07T07:43:16;10.60;1.00
4183;DHT22;2105;52.300;9.182;2023-05-07T07:45:43;10.60;1.00
4183;DHT22;2105;52.300;9.182;2023-05-07T07:48:11;10.60;1.00
4183;DHT22;2105;52.300;9.182;2023-05-07T07:50:38;10.60;1.00
4183;DHT22;2105;52.300;9.182;2023-05-07T07:53:05;10.60;1.00
4183;DHT22;2105;52.300;9.182;2023-05-07T07:55:31;10.60;1.00
4183;DHT22;2105;52.300;9.182;2023-05-07T07:57:59;10.60;1.00
4183;DHT22;2105;52.300;9.182;2023-05-07T08:00:26;10.60;1.00
4183;DHT22;2105;52.300;9.182;2023-05-07T08:02:52;10.60;1.00
4183;DHT22;2105;52.300;9.182;2023-05-07T08:05:19;10.70;1.00
4183;DHT22;2105;52.300;9.182;2023-05-07T08:07:46;10.70;1.00
4183;DHT22;2105;52.300;9.182;2023-05-07T08:10:17;10.70;1.00
4183;DHT22;2105;52.300;9.182;2023-05-07T08:12:46;10.70;1.00
4183;DHT22;2105;52.300;9.182;2023-05-07T08:15:14;10.70;1.00
4183;DHT22;2105;52.300;9.182;2023-05-07T08:17:41;10.70;1.00
4183;DHT22;2105;52.300;9.182;2023-05-07T08:20:09;10.70;1.00
4183;DHT22;2105;52.300;9.182;2023-05-07T08:22:36;10.70;1.00
4183;DHT22;2105;52.300;9.182;2023-05-07T08:25:03;10.70;1.00
4183;DHT22;2105;52.300;9.182;2023-05-07T08:27:30;10.80;1.00
4183;DHT22;2105;52.300;9.182;2023-05-07T08:29:57;10.80;1.00
4183;DHT22;2105;52.300;9.182;2023-05-07T08:32:25;10.80;99.90
4183;DHT22;2105;52.300;9.182;2023-05-07T08:34:52;10.90;1.00
4183;DHT22;2105;52.300;9.182;2023-05-07T08:37:18;10.90;99.90
4183;DHT22;2105;52.300;9.182;2023-05-07T08:39:45;10.90;99.90
4183;DHT22;2105;52.300;9.182;2023-05-07T08:42:12;11.00;99.90
4183;DHT22;2105;52.300;9.182;2023-05-07T08:44:44;11.00;99.90
4183;DHT22;2105;52.300;9.182;2023-05-07T08:47:12;11.00;99.90
4183;DHT22;2105;52.300;9.182;2023-05-07T08:49:40;11.00;99.90
4183;DHT22;2105;52.300;9.182;2023-05-07T08:52:07;11.00;99.90
4183;DHT22;2105;52.300;9.182;2023-05-07T08:54:34;11.10;99.90
4183;DHT22;2105;52.300;9.182;2023-05-07T08:57:01;11.00;1.00
4183;DHT22;2105;52.300;9.182;2023-05-07T08:59:28;11.00;1.00
4183;DHT22;2105;52.300;9.182;2023-05-07T09:01:55;11.10;1.00
4183;DHT22;2105;52.300;9.182;2023-05-07T09:04:21;11.20;1.00
4183;DHT22;2105;52.300;9.182;2023-05-07T09:06:49;11.20;1.00
4183;DHT22;2105;52.300;9.182;2023-05-07T09:09:17;11.20;99.90
4183;DHT22;2105;52.300;9.182;2023-05-07T09:11:44;11.20;3.50
4183;DHT22;2105;52.300;9.182;2023-05-07T09:14:11;11.20;1.00
4183;DHT22;2105;52.300;9.182;2023-05-07T09:16:38;11.20;99.90
4183;DHT22;2105;52.300;9.182;2023-05-07T09:19:05;11.20;1.00
4183;DHT22;2105;52.300;9.182;2023-05-07T09:21:32;11.20;99.90
4183;DHT22;2105;52.300;9.182;2023-05-07T09:24:00;11.20;99.90
4183;DHT22;2105;52.300;9.182;2023-05-07T09:26:26;11.20;1.00
4183;DHT22;2105;52.300;9.182;2023-05-07T09:28:53;11.40;1.00
4183;DHT22;2105;52.300;9.182;2023-05-07T09:31:20;11.50;79.00
4183;DHT22;2105;52.300;9.182;2023-05-07T09:33:48;11.50;1.00
4183;DHT22;2105;52.300;9.182;2023-05-07T09:36:15;11.60;1.00
4183;DHT22;2105;52.300;9.182;2023-05-07T09:38:42;11.70;99.90
4183;DHT22;2105;52.300;9.182;2023-05-07T09:41:11;11.70;99.90
4183;DHT22;2105;52.300;9.182;2023-05-07T09:43:39;11.70;71.90
4183;DHT22;2105;52.300;9.182;2023-05-07T09:46:08;11.80;1.00
4183;DHT22;2105;52.300;9.182;2023-05-07T09:48:42;11.80;1.00
4183;DHT22;2105;52.300;9.182;2023-05-07T09:51:22;11.80;1.00
4183;DHT22;2105;52.300;9.182;2023-05-07T09:53:52;11.80;1.00
4183;DHT22;2105;52.300;9.182;2023-05-07T09:56:21;11.90;99.90
4183;DHT22;2105;52.300;9.182;2023-05-07T09:58:49;11.90;20.90
4183;DHT22;2105;52.300;9.182;2023-05-07T10:01:17;11.90;74.10
4183;DHT22;2105;52.300;9.182;2023-05-07T10:03:48;11.90;1.00
4183;DHT22;2105;52.300;9.182;2023-05-07T10:06:16;11.90;1.00
4183;DHT22;2105;52.300;9.182;2023-05-07T10:08:44;12.00;1.00
4183;DHT22;2105;52.300;9.182;2023-05-07T10:11:11;12.00;1.00
4183;DHT22;2105;52.300;9.182;2023-05-07T10:13:40;12.10;1.00
4183;DHT22;2105;52.300;9.182;2023-05-07T10:16:07;12.10;99.90
4183;DHT22;2105;52.300;9.182;2023-05-07T10:18:34;12.10;83.80
4183;DHT22;2105;52.300;9.182;2023-05-07T10:21:04;12.20;99.90
4183;DHT22;2105;52.300;9.182;2023-05-07T10:23:33;12.30;63.60
4183;DHT22;2105;52.300;9.182;2023-05-07T10:26:03;12.40;99.90
4183;DHT22;2105;52.300;9.182;2023-05-07T10:28:33;12.40;1.00
4183;DHT22;2105;52.300;9.182;2023-05-07T10:31:18;12.40;1.00
4183;DHT22;2105;52.300;9.182;2023-05-07T10:33:49;12.60;99.90
4183;DHT22;2105;52.300;9.182;2023-05-07T10:36:18;12.70;1.00
4183;DHT22;2105;52.300;9.182;2023-05-07T10:38:45;12.80;99.90
4183;DHT22;2105;52.300;9.182;2023-05-07T10:41:12;12.80;1.00
4183;DHT22;2105;52.300;9.182;2023-05-07T10:43:41;12.90;99.90
4183;DHT22;2105;52.300;9.182;2023-05-07T10:46:15;12.90;1.00
4183;DHT22;2105;52.300;9.182;2023-05-07T10:49:07;12.80;1.00
4183;DHT22;2105;52.300;9.182;2023-05-07T10:51:34;12.80;1.00
4183;DHT22;2105;52.300;9.182;2023-05-07T10:54:21;12.70;99.90
4183;DHT22;2105;52.300;9.182;2023-05-07T10:56:49;12.80;64.80
4183;DHT22;2105;52.300;9.182;2023-05-07T10:59:36;12.80;99.90
4183;DHT22;2105;52.300;9.182;2023-05-07T11:02:10;12.80;1.00
4183;DHT22;2105;52.300;9.182;2023-05-07T11:04:39;12.90;99.90
4183;DHT22;2105;52.300;9.182;2023-05-07T11:07:29;12.90;99.90
4183;DHT22;2105;52.300;9.182;2023-05-07T11:10:04;12.90;99.90
4183;DHT22;2105;52.300;9.182;2023-05-07T11:12:47;13.00;1.00
4183;DHT22;2105;52.300;9.182;2023-05-07T11:15:14;13.20;1.00
4183;DHT22;2105;52.300;9.182;2023-05-07T11:17:54;13.20;99.90
4183;DHT22;2105;52.300;9.182;2023-05-07T11:20:50;13.20;99.90
4183;DHT22;2105;52.300;9.182;2023-05-07T11:26:17;13.50;1.00
4183;DHT22;2105;52.300;9.182;2023-05-07T11:28:44;13.60;99.90
4183;DHT22;2105;52.300;9.182;2023-05-07T11:31:11;13.70;1.00
4183;DHT22;2105;52.300;9.182;2023-05-07T11:33:38;13.90;2.50
4183;DHT22;2105;52.300;9.182;2023-05-07T11:36:08;13.90;1.00
4183;DHT22;2105;52.300;9.182;2023-05-07T11:38:35;14.00;99.90
4183;DHT22;2105;52.300;9.182;2023-05-07T11:41:03;14.10;99.90
4183;DHT22;2105;52.300;9.182;2023-05-07T11:43:30;14.30;1.00
4183;DHT22;2105;52.300;9.182;2023-05-07T11:46:05;14.30;99.90
4183;DHT22;2105;52.300;9.182;2023-05-07T11:48:33;14.40;99.90
4183;DHT22;2105;52.300;9.182;2023-05-07T11:51:01;14.40;1.00
4183;DHT22;2105;52.300;9.182;2023-05-07T11:53:36;14.30;1.00
4183;DHT22;2105;52.300;9.182;2023-05-07T11:56:07;14.30;1.00
4183;DHT22;2105;52.300;9.182;2023-05-07T11:58:36;14.40;99.90
4183;DHT22;2105;52.300;9.182;2023-05-07T12:01:07;14.30;99.90
4183;DHT22;2105;52.300;9.182;2023-05-07T12:03:34;14.20;1.00
4183;DHT22;2105;52.300;9.182;2023-05-07T12:09:53;14.60;1.00
4183;DHT22;2105;52.300;9.182;2023-05-07T12:12:55;14.80;99.90
4183;DHT22;2105;52.300;9.182;2023-05-07T12:42:40;16.40;99.90
4183;DHT22;2105;52.300;9.182;2023-05-07T12:55:14;16.90;1.00
4183;DHT22;2105;52.300;9.182;2023-05-07T12:57:45;17.10;99.90
4183;DHT22;2105;52.300;9.182;2023-05-07T13:00:12;17.10;11.20
4183;DHT22;2105;52.300;9.182;2023-05-07T13:02:41;16.70;99.90
4183;DHT22;2105;52.300;9.182;2023-05-07T13:05:09;16.70;1.00
4183;DHT22;2105;52.300;9.182;2023-05-07T13:07:36;16.70;1.00
4183;DHT22;2105;52.300;9.182;2023-05-07T13:10:04;16.70;1.00
4183;DHT22;2105;52.300;9.182;2023-05-07T13:12:30;16.60;99.90
4183;DHT22;2105;52.300;9.182;2023-05-07T13:14:58;16.60;1.00
4183;DHT22;2105;52.300;9.182;2023-05-07T13:17:25;16.70;99.90
4183;DHT22;2105;52.300;9.182;2023-05-07T13:19:52;16.60;99.90
4183;DHT22;2105;52.300;9.182;2023-05-07T13:22:18;16.50;99.90
4183;DHT22;2105;52.300;9.182;2023-05-07T13:24:45;16.70;99.90
4183;DHT22;2105;52.300;9.182;2023-05-07T13:27:11;16.90;1.00
4183;DHT22;2105;52.300;9.182;2023-05-07T13:29:38;17.00;1.00
4183;DHT22;2105;52.300;9.182;2023-05-07T13:32:06;16.80;1.60
4183;DHT22;2105;52.300;9.182;2023-05-07T13:34:32;16.70;99.90
4183;DHT22;2105;52.300;9.182;2023-05-07T13:36:59;16.70;1.00
4183;DHT22;2105;52.300;9.182;2023-05-07T13:39:26;16.70;1.00
4183;DHT22;2105;52.300;9.182;2023-05-07T13:41:52;16.70;64.60
4183;DHT22;2105;52.300;9.182;2023-05-07T13:44:19;16.80;1.00
4183;DHT22;2105;52.300;9.182;2023-05-07T13:46:46;16.80;99.90
4183;DHT22;2105;52.300;9.182;2023-05-07T13:49:14;16.90;1.00
4183;DHT22;2105;52.300;9.182;2023-05-07T13:51:40;17.10;99.90
4183;DHT22;2105;52.300;9.182;2023-05-07T13:54:07;17.40;1.00
4183;DHT22;2105;52.300;9.182;2023-05-07T13:56:34;17.30;1.00
4183;DHT22;2105;52.300;9.182;2023-05-07T13:59:00;17.10;1.00
4183;DHT22;2105;52.300;9.182;2023-05-07T14:01:27;16.90;1.00
4183;DHT22;2105;52.300;9.182;2023-05-07T14:03:55;17.00;99.90
4183;DHT22;2105;52.300;9.182;2023-05-07T14:06:23;17.00;14.70
4183;DHT22;2105;52.300;9.182;2023-05-07T14:08:49;17.00;99.90
4183;DHT22;2105;52.300;9.182;2023-05-07T14:11:16;17.00;99.90
4183;DHT22;2105;52.300;9.182;2023-05-07T14:13:43;17.10;99.90
4183;DHT22;2105;52.300;9.182;2023-05-07T14:16:09;17.10;99.90
4183;DHT22;2105;52.300;9.182;2023-05-07T14:18:36;17.00;99.90
4183;DHT22;2105;52.300;9.182;2023-05-07T14:21:04;17.00;1.00
4183;DHT22;2105;52.300;9.182;2023-05-07T14:23:32;16.70;1.00
4183;DHT22;2105;52.300;9.182;2023-05-07T14:25:59;16.70;99.90
4183;DHT22;2105;52.300;9.182;2023-05-07T14:28:26;16.70;1.00
4183;DHT22;2105;52.300;9.182;2023-05-07T14:30:52;16.50;1.00
4183;DHT22;2105;52.300;9.182;2023-05-07T14:33:19;16.70;1.00
4183;DHT22;2105;52.300;9.182;2023-05-07T14:35:45;16.80;99.90
4183;DHT22;2105;52.300;9.182;2023-05-07T14:38:14;17.00;1.00
4183;DHT22;2105;52.300;9.182;2023-05-07T14:40:42;17.10;99.90
4183;DHT22;2105;52.300;9.182;2023-05-07T14:43:08;17.30;39.60
4183;DHT22;2105;52.300;9.182;2023-05-07T14:45:35;17.40;1.00
4183;DHT22;2105;52.300;9.182;2023-05-07T14:48:02;17.40;1.00
4183;DHT22;2105;52.300;9.182;2023-05-07T14:50:28;17.40;1.00
4183;DHT22;2105;52.300;9.182;2023-05-07T14:52:55;17.20;99.90
4183;DHT22;2105;52.300;9.182;2023-05-07T14:55:22;17.10;99.90
4183;DHT22;2105;52.300;9.182;2023-05-07T14:57:50;17.10;1.00
4183;DHT22;2105;52.300;9.182;2023-05-07T15:00:17;17.00;1.00
4183;DHT22;2105;52.300;9.182;2023-05-07T15:02:43;17.00;1.00
4183;DHT22;2105;52.300;9.182;2023-05-07T15:05:10;17.10;1.00
4183;DHT22;2105;52.300;9.182;2023-05-07T15:07:37;17.20;1.00
4183;DHT22;2105;52.300;9.182;2023-05-07T15:10:04;17.10;1.00
4183;DHT22;2105;52.300;9.182;2023-05-07T15:12:31;17.00;1.00
4183;DHT22;2105;52.300;9.182;2023-05-07T15:14:59;17.00;1.00
4183;DHT22;2105;52.300;9.182;2023-05-07T15:17:25;16.90;99.90
4183;DHT22;2105;52.300;9.182;2023-05-07T15:19:52;16.90;99.90
4183;DHT22;2105;52.300;9.182;2023-05-07T15:22:19;16.90;1.00
4183;DHT22;2105;52.300;9.182;2023-05-07T15:24:46;16.80;1.00
4183;DHT22;2105;52.300;9.182;2023-05-07T15:27:13;16.60;99.90
4183;DHT22;2105;52.300;9.182;2023-05-07T15:29:39;16.40;99.90
4183;DHT22;2105;52.300;9.182;2023-05-07T15:32:07;16.20;1.00
4183;DHT22;2105;52.300;9.182;2023-05-07T15:34:34;16.10;1.00
4183;DHT22;2105;52.300;9.182;2023-05-07T15:37:01;16.00;99.90
4183;DHT22;2105;52.300;9.182;2023-05-07T15:39:27;16.00;99.90
4183;DHT22;2105;52.300;9.182;2023-05-07T15:41:54;15.90;99.90
4183;DHT22;2105;52.300;9.182;2023-05-07T15:44:21;15.80;99.90
4183;DHT22;2105;52.300;9.182;2023-05-07T15:46:47;15.60;76.80
4183;DHT22;2105;52.300;9.182;2023-05-07T15:49:15;15.50;1.00
4183;DHT22;2105;52.300;9.182;2023-05-07T15:51:42;15.40;1.00
4183;DHT22;2105;52.300;9.182;2023-05-07T15:54:09;15.30;99.90
4183;DHT22;2105;52.300;9.182;2023-05-07T15:56:35;15.30;1.00
4183;DHT22;2105;52.300;9.182;2023-05-07T15:59:02;15.20;1.00
4183;DHT22;2105;52.300;9.182;2023-05-07T16:01:29;15.10;1.00
4183;DHT22;2105;52.300;9.182;2023-05-07T16:03:56;15.00;99.90
4183;DHT22;2105;52.300;9.182;2023-05-07T16:06:25;15.00;99.90
4183;DHT22;2105;52.300;9.182;2023-05-07T16:08:52;15.00;99.90
4183;DHT22;2105;52.300;9.182;2023-05-07T16:11:18;14.90;99.90
4183;DHT22;2105;52.300;9.182;2023-05-07T16:13:45;14.80;68.20
4183;DHT22;2105;52.300;9.182;2023-05-07T16:16:12;14.80;99.90
4183;DHT22;2105;52.300;9.182;2023-05-07T16:18:38;14.70;1.00
4183;DHT22;2105;52.300;9.182;2023-05-07T16:21:05;14.70;1.00
4183;DHT22;2105;52.300;9.182;2023-05-07T16:23:33;14.80;1.00
4183;DHT22;2105;52.300;9.182;2023-05-07T16:26:00;14.70;1.00
4183;DHT22;2105;52.300;9.182;2023-05-07T16:28:29;14.70;1.00
4183;DHT22;2105;52.300;9.182;2023-05-07T16:30:55;14.70;1.00
4183;DHT22;2105;52.300;9.182;2023-05-07T16:33:22;14.70;1.00
4183;DHT22;2105;52.300;9.182;2023-05-07T16:35:51;14.60;1.00
4183;DHT22;2105;52.300;9.182;2023-05-07T16:38:18;14.60;54.20
4183;DHT22;2105;52.300;9.182;2023-05-07T16:40:46;14.60;1.00
4183;DHT22;2105;52.300;9.182;2023-05-07T16:43:13;14.60;1.00
4183;DHT22;2105;52.300;9.182;2023-05-07T16:45:39;14.60;99.90
4183;DHT22;2105;52.300;9.182;2023-05-07T16:48:06;14.60;1.00
4183;DHT22;2105;52.300;9.182;2023-05-07T16:50:33;14.60;99.90
4183;DHT22;2105;52.300;9.182;2023-05-07T16:52:59;14.60;1.00
4183;DHT22;2105;52.300;9.182;2023-05-07T16:55:26;14.60;1.00